createdAt,value
2019-04-05T00:01:52.011Z,98172.11
2019-04-05T00:04:22.932Z,98173.24
2019-04-05T00:06:53.621Z,98181.52
2019-04-05T00:09:24.452Z,98179.19
2019-04-05T00:11:55.032Z,98174.17
2019-04-05T00:14:25.531Z,98168.90
2019-04-05T00:16:56.091Z,98175.62
2019-04-05T00:19:26.691Z,98176.04
2019-04-05T00:21:57.471Z,98177.61
2019-04-05T00:24:28.061Z,98176.30
2019-04-05T00:26:58.641Z,98174.52
2019-04-05T00:29:29.286Z,98165.32
2019-04-05T00:31:59.971Z,98181.02
2019-04-05T00:34:30.632Z,98174.90
2019-04-05T00:37:01.160Z,98184.30
2019-04-05T00:39:31.782Z,98172.64
2019-04-05T00:42:02.611Z,98177.28
2019-04-05T00:44:33.128Z,98168.48
2019-04-05T00:47:03.812Z,98173.46
2019-04-05T00:49:34.436Z,98177.24
2019-04-05T00:52:05.150Z,98172.20
2019-04-05T00:54:35.652Z,98178.98
2019-04-05T00:57:06.305Z,98176.56
2019-04-05T00:59:36.914Z,98169.92
2019-04-05T01:02:07.930Z,98174.99
2019-04-05T01:04:38.551Z,98169.68
2019-04-05T01:07:09.140Z,98176.17
2019-04-05T01:09:39.826Z,98174.35
2019-04-05T01:12:10.441Z,98180.56
2019-04-05T01:14:41.064Z,98177.56
2019-04-05T01:17:24.205Z,98180.40
2019-04-05T01:19:47.481Z,98188.95
2019-04-05T01:22:19.156Z,98192.77
2019-04-05T01:24:49.740Z,98183.88
2019-04-05T01:27:21.015Z,98192.56
2019-04-05T01:29:51.601Z,98195.48
2019-04-05T01:32:22.130Z,98192.97
2019-04-05T01:34:52.734Z,98196.46
2019-04-05T01:37:23.405Z,98184.70
2019-04-05T01:39:54.033Z,98190.38
2019-04-05T01:42:24.994Z,98188.14
2019-04-05T01:44:56.266Z,98191.55
2019-04-05T01:47:26.941Z,98187.98
2019-04-05T01:49:57.567Z,98183.64
2019-04-05T01:52:28.131Z,98183.55
2019-04-05T01:54:58.731Z,98185.94
2019-04-05T01:57:29.277Z,98184.69
2019-04-05T01:59:59.796Z,98179.33
2019-04-05T02:02:30.411Z,98180.78
2019-04-05T02:05:01.021Z,98185.47
2019-04-05T02:07:31.874Z,98174.84
2019-04-05T02:10:02.540Z,98180.44
2019-04-05T02:12:33.164Z,98178.55
2019-04-05T02:15:03.893Z,98188.08
2019-04-05T02:17:35.930Z,98186.66
2019-04-05T02:20:07.666Z,98183.16
2019-04-05T02:22:38.308Z,98188.13
2019-04-05T02:25:09.061Z,98188.67
2019-04-05T02:27:39.578Z,98190.09
2019-04-05T02:30:10.603Z,98198.15
2019-04-05T02:32:41.253Z,98197.70
2019-04-05T02:35:12.562Z,98196.80
2019-04-05T02:37:43.334Z,98195.96
2019-04-05T02:40:16.507Z,98193.45
2019-04-05T02:42:49.026Z,98203.33
2019-04-05T02:45:20.443Z,98195.20
2019-04-05T02:47:55.803Z,98192.96
2019-04-05T02:50:29.372Z,98200.29
2019-04-05T02:53:04.946Z,98200.42
2019-04-05T02:55:37.262Z,98210.39
2019-04-05T02:58:10.101Z,98208.38
2019-04-05T03:00:41.370Z,98200.83
2019-04-05T03:03:12.346Z,98203.82
2019-04-05T03:05:43.403Z,98211.69
2019-04-05T03:08:14.367Z,98203.20
2019-04-05T03:11:10.121Z,98208.38
2019-04-05T03:13:53.256Z,98209.41
2019-04-05T03:16:40.723Z,98209.81
2019-04-05T03:19:14.935Z,98215.58
2019-04-05T03:21:52.016Z,98207.53
2019-04-05T03:24:29.554Z,98214.95
2019-04-05T03:27:07.203Z,98214.02
2019-04-05T03:29:41.067Z,98217.95
2019-04-05T03:32:12.099Z,98218.75
2019-04-05T03:34:42.978Z,98218.00
2019-04-05T03:37:14.042Z,98221.58
2019-04-05T03:39:45.122Z,98225.86
2019-04-05T03:42:16.434Z,98222.88
2019-04-05T03:44:47.178Z,98229.48
2019-04-05T03:47:17.903Z,98227.34
2019-04-05T03:49:48.470Z,98225.23
2019-04-05T03:52:19.343Z,98229.75
2019-04-05T03:54:50.482Z,98225.91
2019-04-05T03:57:21.161Z,98229.84
2019-04-05T03:59:51.792Z,98228.28
2019-04-05T04:02:23.667Z,98221.66
2019-04-05T04:04:54.492Z,98219.47
2019-04-05T04:07:25.427Z,98226.27
2019-04-05T04:09:56.052Z,98228.77
2019-04-05T04:12:27.036Z,98225.01
2019-04-05T04:15:14.077Z,98236.31
2019-04-05T04:17:47.242Z,98235.27
2019-04-05T04:20:45.601Z,98248.87
2019-04-05T04:23:16.707Z,98243.64
2019-04-05T04:25:48.087Z,98238.81
2019-04-05T04:28:19.128Z,98250.06
2019-04-05T04:30:49.870Z,98253.52
2019-04-05T04:33:21.126Z,98246.89
2019-04-05T04:35:53.445Z,98245.55
2019-04-05T04:38:24.949Z,98251.93
2019-04-05T04:40:56.636Z,98251.21
2019-04-05T04:43:28.539Z,98257.28
2019-04-05T04:45:59.481Z,98263.41
2019-04-05T04:48:31.203Z,98268.55
2019-04-05T04:51:02.727Z,98265.95
2019-04-05T04:53:34.436Z,98272.43
2019-04-05T04:56:05.264Z,98266.27
2019-04-05T04:58:36.626Z,98272.92
2019-04-05T05:01:07.525Z,98276.85
2019-04-05T05:03:38.741Z,98278.05
2019-04-05T05:06:09.704Z,98285.44
2019-04-05T05:08:40.813Z,98282.20
2019-04-05T05:11:14.793Z,98283.19
2019-04-05T05:13:44.936Z,98294.31
2019-04-05T05:16:15.916Z,98291.99
2019-04-05T05:18:46.632Z,98296.38
2019-04-05T05:21:17.530Z,98296.27
2019-04-05T05:23:48.387Z,98297.72
2019-04-05T05:26:19.481Z,98295.38
2019-04-05T05:28:50.377Z,98299.41
2019-04-05T05:31:21.427Z,98301.64
2019-04-05T05:34:07.380Z,98308.00
2019-04-05T05:36:39.529Z,98305.95
2019-04-05T05:39:10.832Z,98308.45
2019-04-05T05:41:41.955Z,98308.69
2019-04-05T05:44:12.713Z,98310.41
2019-04-05T05:46:43.528Z,98306.27
2019-04-05T05:49:20.431Z,98307.34
2019-04-05T05:51:51.632Z,98305.77
2019-04-05T05:54:22.391Z,98306.42
2019-04-05T05:56:53.281Z,98304.85
2019-04-05T05:59:24.091Z,98307.09
2019-04-05T06:01:54.921Z,98305.92
2019-04-05T06:04:25.675Z,98311.31
2019-04-05T06:06:56.542Z,98313.51
2019-04-05T06:09:32.413Z,98320.17
2019-04-05T06:12:08.201Z,98321.42
2019-04-05T06:14:42.610Z,98321.51
2019-04-05T06:17:13.554Z,98332.38
2019-04-05T06:19:44.124Z,98328.86
2019-04-05T06:22:14.878Z,98333.41
2019-04-05T06:24:45.813Z,98334.58
2019-04-05T06:27:16.416Z,98350.53
2019-04-05T06:29:47.043Z,98326.64
2019-04-05T06:32:17.767Z,98330.36
2019-04-05T06:34:48.406Z,98341.38
2019-04-05T06:37:19.555Z,98336.14
2019-04-05T06:39:50.516Z,98346.28
2019-04-05T06:42:21.461Z,98333.42
2019-04-05T06:44:52.043Z,98337.05
2019-04-05T06:47:22.747Z,98333.00
2019-04-05T06:49:53.443Z,98338.98
2019-04-05T06:52:24.041Z,98334.43
2019-04-05T06:54:54.718Z,98344.91
2019-04-05T06:57:25.944Z,98343.98
2019-04-05T06:59:56.745Z,98335.01
2019-04-05T07:02:27.510Z,98343.17
2019-04-05T07:04:58.143Z,98347.11
2019-04-05T07:07:29.157Z,98349.74
2019-04-05T07:10:00.427Z,98353.58
2019-04-05T07:12:31.042Z,98359.27
2019-04-05T07:15:01.672Z,98372.77
2019-04-05T07:17:32.786Z,98363.08
2019-04-05T07:20:03.333Z,98370.41
2019-04-05T07:22:39.083Z,98370.47
2019-04-05T07:25:07.223Z,98376.08
2019-04-05T07:27:37.938Z,98376.36
2019-04-05T07:30:08.928Z,98382.17
2019-04-05T07:32:41.941Z,98384.98
2019-04-05T07:35:12.845Z,98384.87
2019-04-05T07:37:43.882Z,98376.42
2019-04-05T07:40:14.933Z,98382.41
2019-04-05T07:42:45.711Z,98379.17
2019-04-05T07:45:16.627Z,98380.05
2019-04-05T07:47:47.246Z,98390.56
2019-04-05T07:50:18.290Z,98392.09
2019-04-05T07:52:49.121Z,98388.61
2019-04-05T07:55:19.833Z,98390.95
2019-04-05T07:57:50.541Z,98387.63
2019-04-05T08:00:59.540Z,98388.11
2019-04-05T08:03:30.343Z,98390.09
2019-04-05T08:06:01.101Z,98402.75
2019-04-05T08:09:08.722Z,98404.27
2019-04-05T08:11:42.533Z,98396.61
2019-04-05T08:14:17.739Z,98402.25
2019-04-05T08:16:46.965Z,98398.97
2019-04-05T08:19:17.589Z,98415.31
2019-04-05T08:21:48.325Z,98402.73
2019-04-05T08:24:19.021Z,98419.56
2019-04-05T08:26:50.286Z,98398.25
2019-04-05T08:29:21.195Z,98404.95
2019-04-05T08:31:51.852Z,98415.05
2019-04-05T08:34:22.502Z,98401.93
2019-04-05T08:36:53.337Z,98405.36
2019-04-05T08:39:24.220Z,98403.59
2019-04-05T08:41:55.532Z,98407.20
2019-04-05T08:44:26.086Z,98408.94
2019-04-05T08:46:56.704Z,98411.34
2019-04-05T08:49:27.456Z,98402.09
2019-04-05T08:51:57.975Z,98412.73
2019-04-05T08:54:32.701Z,98407.36
2019-04-05T08:57:01.589Z,98408.36
2019-04-05T08:59:32.142Z,98414.51
2019-04-05T09:02:02.946Z,98405.73
2019-04-05T09:04:34.637Z,98408.42
2019-04-05T09:07:05.521Z,98403.67
2019-04-05T09:09:36.125Z,98400.48
2019-04-05T09:12:06.958Z,98406.89
2019-04-05T09:14:37.692Z,98398.97
2019-04-05T09:17:08.433Z,98392.55
2019-04-05T09:19:38.931Z,98409.98
2019-04-05T09:22:09.634Z,98403.98
2019-04-05T09:24:40.151Z,98415.73
2019-04-05T09:27:10.862Z,98404.90
2019-04-05T09:29:42.434Z,98412.52
2019-04-05T09:32:13.035Z,98409.67
2019-04-05T09:34:43.727Z,98403.23
2019-04-05T09:37:14.253Z,98412.16
2019-04-05T09:39:44.957Z,98404.70
2019-04-05T09:42:15.743Z,98407.94
2019-04-05T09:44:46.277Z,98411.59
2019-04-05T09:47:16.976Z,98412.17
2019-04-05T09:49:47.594Z,98422.06
2019-04-05T09:52:18.409Z,98404.19
2019-04-05T09:54:49.360Z,98422.59
2019-04-05T09:57:20.219Z,98415.80
2019-04-05T09:59:50.911Z,98412.23
2019-04-05T10:02:21.691Z,98425.34
2019-04-05T10:04:52.392Z,98419.89
2019-04-05T10:07:23.062Z,98423.77
2019-04-05T10:09:53.845Z,98418.31
2019-04-05T10:12:24.466Z,98416.94
2019-04-05T10:14:55.162Z,98412.85
2019-04-05T10:17:25.612Z,98416.78
2019-04-05T10:19:56.221Z,98422.30
2019-04-05T10:22:26.897Z,98414.69
2019-04-05T10:24:57.452Z,98411.59
2019-04-05T10:27:28.090Z,98408.69
2019-04-05T10:29:58.695Z,98426.06
2019-04-05T10:32:29.353Z,98409.32
2019-04-05T10:34:59.930Z,98412.88
2019-04-05T10:37:30.726Z,98405.92
2019-04-05T10:40:01.568Z,98412.84
2019-04-05T10:42:36.883Z,98408.51
2019-04-05T10:45:11.866Z,98405.41
2019-04-05T10:47:42.505Z,98419.16
2019-04-05T10:50:14.826Z,98409.54
2019-04-05T10:52:45.436Z,98405.44
2019-04-05T10:55:17.109Z,98402.56
2019-04-05T10:57:47.708Z,98399.41
2019-04-05T11:00:19.850Z,98398.31
2019-04-05T11:02:50.538Z,98409.13
2019-04-05T11:05:21.181Z,98405.58
2019-04-05T11:07:51.998Z,98397.88
2019-04-05T11:10:22.794Z,98394.86
2019-04-05T11:12:53.414Z,98397.26
2019-04-05T11:15:24.110Z,98387.91
2019-04-05T11:17:54.873Z,98372.70
2019-04-05T11:20:25.936Z,98381.61
2019-04-05T11:22:56.716Z,98383.23
2019-04-05T11:25:27.420Z,98383.74
2019-04-05T11:27:58.511Z,98383.17
2019-04-05T11:30:43.543Z,98377.60
2019-04-05T11:33:14.809Z,98379.17
2019-04-05T11:35:45.915Z,98387.39
2019-04-05T11:38:17.568Z,98382.11
2019-04-05T11:40:48.735Z,98371.59
2019-04-05T11:43:20.500Z,98369.70
2019-04-05T11:45:52.041Z,98373.23
2019-04-05T11:48:22.833Z,98370.99
2019-04-05T11:50:53.694Z,98373.50
2019-04-05T11:53:24.482Z,98355.12
2019-04-05T11:55:55.436Z,98359.44
2019-04-05T11:58:26.015Z,98362.05
2019-04-05T12:01:02.369Z,98350.26
2019-04-05T12:03:33.151Z,98360.87
2019-04-05T12:06:04.099Z,98357.06
2019-04-05T12:08:34.862Z,98363.21
2019-04-05T12:11:05.666Z,98359.59
2019-04-05T12:13:36.292Z,98344.58
2019-04-05T12:16:10.288Z,98348.89
2019-04-05T12:18:39.355Z,98339.48
2019-04-05T12:21:09.958Z,98340.64
2019-04-05T12:23:40.567Z,98356.84
2019-04-05T12:26:11.290Z,98345.56
2019-04-05T12:28:41.865Z,98333.57
2019-04-05T12:31:12.500Z,98334.73
2019-04-05T12:33:42.990Z,98334.19
2019-04-05T12:36:13.931Z,98334.23
2019-04-05T12:38:44.774Z,98339.90
2019-04-05T12:41:18.129Z,98332.58
2019-04-05T12:43:50.691Z,98335.36
2019-04-05T12:46:20.065Z,98334.14
2019-04-05T12:48:50.733Z,98330.19
2019-04-05T12:51:21.373Z,98338.47
2019-04-05T12:53:52.041Z,98328.49
2019-04-05T12:56:24.381Z,98329.83
2019-04-05T12:58:55.976Z,98322.77
2019-04-05T13:01:27.335Z,98320.09
2019-04-05T13:03:58.805Z,98318.64
2019-04-05T13:06:29.580Z,98323.27
2019-04-05T13:09:00.161Z,98319.68
2019-04-05T13:11:30.865Z,98316.20
2019-04-05T13:14:01.513Z,98321.39
2019-04-05T13:16:32.033Z,98322.17
2019-04-05T13:19:02.821Z,98326.63
2019-04-05T13:21:33.454Z,98326.34
2019-04-05T13:24:06.878Z,98315.81
2019-04-05T13:26:37.048Z,98314.96
2019-04-05T13:29:07.890Z,98314.06
2019-04-05T13:31:38.504Z,98311.05
2019-04-05T13:34:09.302Z,98308.92
2019-04-05T13:36:39.866Z,98305.30
2019-04-05T13:39:11.052Z,98302.66
2019-04-05T13:41:41.632Z,98316.77
2019-04-05T13:44:12.272Z,98300.06
2019-04-05T13:46:43.106Z,98303.95
2019-04-05T13:49:13.961Z,98306.09
2019-04-05T13:51:44.626Z,98296.32
2019-04-05T13:54:15.296Z,98291.13
2019-04-05T13:56:49.086Z,98288.11
2019-04-05T13:59:19.771Z,98292.09
2019-04-05T14:01:51.522Z,98304.80
2019-04-05T14:04:22.313Z,98291.67
2019-04-05T14:06:54.201Z,98300.04
2019-04-05T14:09:25.191Z,98299.13
2019-04-05T14:11:55.990Z,98306.59
2019-04-05T14:14:28.380Z,98305.55
2019-04-05T14:16:59.126Z,98296.66
2019-04-05T14:19:30.127Z,98298.45
2019-04-05T14:22:08.436Z,98291.91
2019-04-05T14:24:33.367Z,98304.86
2019-04-05T14:27:04.193Z,98304.41
2019-04-05T14:29:35.209Z,98310.19
2019-04-05T14:32:19.862Z,98305.38
2019-04-05T14:34:38.516Z,98315.47
2019-04-05T14:37:09.675Z,98302.33
2019-04-05T14:39:40.221Z,98301.06
2019-04-05T14:42:14.423Z,98316.39
2019-04-05T14:44:43.421Z,98312.41
2019-04-05T14:47:14.135Z,98302.34
2019-04-05T14:49:45.041Z,98313.75
2019-04-05T14:52:16.027Z,98314.19
2019-04-05T14:54:46.771Z,98328.21
2019-04-05T14:57:17.516Z,98330.34
2019-04-05T14:59:48.409Z,98327.16
2019-04-05T15:02:19.152Z,98323.59
2019-04-05T15:04:49.857Z,98327.48
2019-04-05T15:07:20.852Z,98328.79
2019-04-05T15:09:54.660Z,98326.16
2019-04-05T15:12:28.893Z,98314.81
2019-04-05T15:14:57.130Z,98321.39
2019-04-05T15:17:27.821Z,98325.41
2019-04-05T15:19:58.496Z,98326.27
2019-04-05T15:22:29.266Z,98317.53
2019-04-05T15:25:01.022Z,98341.60
2019-04-05T15:27:32.111Z,98324.10
2019-04-05T15:30:02.920Z,98336.81
2019-04-05T15:32:33.931Z,98328.93
2019-04-05T15:35:05.212Z,98340.72
2019-04-05T15:37:37.454Z,98354.22
2019-04-05T15:40:09.346Z,98347.12
2019-04-05T15:42:40.030Z,98341.34
2019-04-05T15:45:15.728Z,98349.02
2019-04-05T15:47:43.961Z,98340.72
2019-04-05T15:50:14.890Z,98337.11
2019-04-05T15:52:45.841Z,98331.36
2019-04-05T15:55:16.622Z,98326.48
2019-04-05T15:57:47.420Z,98329.91
2019-04-05T16:00:25.840Z,98336.38
2019-04-05T16:02:55.626Z,98339.78
2019-04-05T16:05:26.371Z,98337.47
2019-04-05T16:07:57.033Z,98345.30
2019-04-05T16:10:27.759Z,98359.22
2019-04-05T16:12:58.690Z,98342.55
2019-04-05T16:15:29.545Z,98344.33
2019-04-05T16:18:00.321Z,98341.77
2019-04-05T16:20:31.041Z,98340.50
2019-04-05T16:23:01.851Z,98339.23
2019-04-05T16:25:32.522Z,98339.27
2019-04-05T16:28:03.216Z,98342.39
2019-04-05T16:30:33.890Z,98332.70
2019-04-05T16:33:04.557Z,98332.69
2019-04-05T16:35:35.360Z,98330.91
2019-04-05T16:38:06.147Z,98339.17
2019-04-05T16:40:37.447Z,98338.25
2019-04-05T16:43:08.716Z,98344.72
2019-04-05T16:45:39.436Z,98342.50
2019-04-05T16:48:10.049Z,98348.54
2019-04-05T16:50:42.296Z,98346.75
2019-04-05T16:53:13.272Z,98344.91
2019-04-05T16:55:44.296Z,98345.31
2019-04-05T16:58:17.846Z,98347.94
2019-04-05T17:00:48.818Z,98345.30
2019-04-05T17:03:19.545Z,98340.89
2019-04-05T17:05:52.353Z,98343.88
2019-04-05T17:08:23.171Z,98346.96
2019-04-05T17:10:53.808Z,98353.00
2019-04-05T17:13:24.663Z,98348.97
2019-04-05T17:15:55.334Z,98354.17
2019-04-05T17:18:26.748Z,98356.66
2019-04-05T17:20:58.251Z,98362.67
2019-04-05T17:23:29.299Z,98367.86
2019-04-05T17:26:01.000Z,98377.53
2019-04-05T17:28:31.697Z,98380.59
2019-04-05T17:31:10.948Z,98379.66
2019-04-05T17:33:42.177Z,98384.78
2019-04-05T17:36:18.563Z,98383.91
2019-04-05T17:38:49.935Z,98384.87
2019-04-05T17:41:23.360Z,98390.38
2019-04-05T17:43:55.460Z,98393.98
2019-04-05T17:46:26.152Z,98395.30
2019-04-05T17:48:56.846Z,98395.66
2019-04-05T17:51:27.755Z,98394.73
2019-04-05T17:53:58.400Z,98397.26
2019-04-05T17:56:29.402Z,98400.52
2019-04-05T17:59:00.248Z,98403.98
2019-04-05T18:01:32.036Z,98401.45
2019-04-05T18:04:02.800Z,98405.52
2019-04-05T18:06:34.409Z,98415.62
2019-04-05T18:09:06.206Z,98412.75
2019-04-05T18:11:37.146Z,98412.43
2019-04-05T18:14:08.042Z,98416.00
2019-04-05T18:16:42.031Z,98414.41
2019-04-05T18:19:12.816Z,98418.06
2019-04-05T18:21:43.811Z,98422.87
2019-04-05T18:24:17.911Z,98421.92
2019-04-05T18:26:48.651Z,98410.59
2019-04-05T18:29:19.596Z,98420.00
2019-04-05T18:31:50.246Z,98422.63
2019-04-05T18:34:22.367Z,98417.93
2019-04-05T18:36:53.708Z,98424.07
2019-04-05T18:39:26.521Z,98415.22
2019-04-05T18:41:58.505Z,98424.34
2019-04-05T18:44:31.210Z,98423.94
2019-04-05T18:47:07.699Z,98431.25
2019-04-05T18:49:41.211Z,98430.86
2019-04-05T18:52:19.756Z,98424.31
2019-04-05T18:54:50.386Z,98424.83
2019-04-05T18:57:25.354Z,98429.61
2019-04-05T18:59:57.046Z,98426.14
2019-04-05T19:02:29.956Z,98422.68
2019-04-05T19:05:04.203Z,98426.16
2019-04-05T19:07:38.286Z,98426.72
2019-04-05T19:10:09.334Z,98430.48
2019-04-05T19:12:40.071Z,98432.97
2019-04-05T19:15:13.186Z,98435.06
2019-04-05T19:17:43.967Z,98436.35
2019-04-05T19:20:15.181Z,98444.29
2019-04-05T19:22:50.058Z,98442.23
2019-04-05T19:25:21.055Z,98451.13
2019-04-05T19:27:55.148Z,98445.69
2019-04-05T19:48:50.326Z,98447.81
2019-04-05T19:51:21.185Z,98443.88
2019-04-05T19:54:01.361Z,98451.66
2019-04-05T19:56:31.002Z,98453.55
2019-04-05T19:59:03.716Z,98455.61
2019-04-05T20:01:36.989Z,98458.67
2019-04-05T20:04:10.831Z,98460.26
2019-04-05T20:06:45.163Z,98464.89
2019-04-05T20:09:19.117Z,98471.80
2019-04-05T20:11:51.116Z,98465.08
2019-04-05T20:14:22.082Z,98451.08
2019-04-05T20:16:56.999Z,98443.16
2019-04-05T20:19:34.341Z,98442.36
2019-04-05T20:22:05.134Z,98443.92
2019-04-05T20:24:39.455Z,98422.27
2019-04-05T20:27:14.758Z,98426.27
2019-04-05T20:29:46.674Z,98422.20
2019-04-05T20:32:17.371Z,98423.34
2019-04-05T20:34:48.015Z,98442.98
2019-04-05T20:37:18.687Z,98437.52
2019-04-05T20:39:49.199Z,98431.55
2019-04-05T20:42:19.860Z,98433.55
2019-04-05T20:44:50.636Z,98429.17
2019-04-05T20:47:21.332Z,98430.19
2019-04-05T20:49:51.961Z,98433.00
2019-04-05T20:52:22.570Z,98424.44
2019-04-05T20:54:53.127Z,98419.92
2019-04-05T20:57:28.068Z,98416.67
2019-04-05T20:59:58.699Z,98422.19
2019-04-05T21:02:29.283Z,98419.78
2019-04-05T21:04:59.998Z,98421.74
2019-04-05T21:07:31.012Z,98421.47
2019-04-05T21:10:01.793Z,98417.86
2019-04-05T21:12:32.414Z,98419.11
2019-04-05T21:15:03.041Z,98422.69
2019-04-05T21:17:33.662Z,98423.43
2019-04-05T21:20:04.342Z,98431.42
2019-04-05T21:22:35.137Z,98437.22
2019-04-05T21:25:06.634Z,98435.41
2019-04-05T21:27:39.150Z,98437.70
2019-04-05T21:30:10.454Z,98438.48
2019-04-05T21:32:41.130Z,98437.00
2019-04-05T21:35:11.766Z,98444.58
2019-04-05T21:37:42.579Z,98447.63
2019-04-05T21:40:13.415Z,98445.53
2019-04-05T21:42:44.099Z,98443.71
2019-04-05T21:45:15.157Z,98449.80
2019-04-05T21:47:45.704Z,98448.11
2019-04-05T21:50:16.290Z,98451.19
2019-04-05T21:52:47.096Z,98448.88
2019-04-05T21:55:17.861Z,98456.42
2019-04-05T21:57:48.455Z,98457.31
2019-04-05T22:00:26.771Z,98451.91
2019-04-05T22:02:57.460Z,98455.21
2019-04-05T22:05:28.133Z,98450.94
2019-04-05T22:07:58.762Z,98450.05
2019-04-05T22:10:29.465Z,98453.09
2019-04-05T22:13:00.075Z,98457.89
2019-04-05T22:15:30.887Z,98460.56
2019-04-05T22:18:01.926Z,98453.79
2019-04-05T22:20:32.547Z,98455.38
2019-04-05T22:23:03.336Z,98458.95
2019-04-05T22:25:34.082Z,98460.05
2019-04-05T22:28:04.840Z,98457.48
2019-04-05T22:30:37.033Z,98458.62
2019-04-05T22:33:07.793Z,98455.83
2019-04-05T22:35:38.571Z,98458.05
2019-04-05T22:38:09.135Z,98456.39
2019-04-05T22:40:39.861Z,98451.75
2019-04-05T22:43:10.456Z,98459.88
2019-04-05T22:45:41.090Z,98460.45
2019-04-05T22:48:11.815Z,98459.16
2019-04-05T22:50:42.441Z,98461.06
2019-04-05T22:53:13.094Z,98459.40
2019-04-05T22:55:43.682Z,98461.11
2019-04-05T22:58:14.321Z,98461.72
2019-04-05T23:00:44.877Z,98466.59
2019-04-05T23:03:15.612Z,98460.61
2019-04-05T23:05:46.281Z,98466.33
2019-04-05T23:08:17.017Z,98466.49
2019-04-05T23:10:47.761Z,98456.28
2019-04-05T23:13:18.362Z,98462.25
2019-04-05T23:15:48.991Z,98457.81
2019-04-05T23:18:19.800Z,98457.83
2019-04-05T23:20:50.426Z,98461.37
2019-04-05T23:23:21.103Z,98466.30
2019-04-05T23:25:52.924Z,98460.53
2019-04-05T23:28:23.475Z,98471.81
2019-04-05T23:30:54.204Z,98459.98
2019-04-05T23:33:24.830Z,98457.44
2019-04-05T23:35:55.564Z,98460.05
2019-04-05T23:38:26.329Z,98454.05
2019-04-05T23:40:57.111Z,98457.58
2019-04-05T23:43:27.831Z,98461.55
2019-04-05T23:45:58.293Z,98462.64
2019-04-05T23:48:28.926Z,98459.38
2019-04-05T23:50:59.502Z,98463.08
2019-04-05T23:53:30.042Z,98463.13
2019-04-05T23:56:00.556Z,98461.06
2019-04-05T23:58:37.551Z,98473.05
